This is the latest recevied weather packets stored in our database for station/object W8XLR-2. If no packets are shown the sender has not sent any weather packets the latest 10 day(s).
| Time | Temp. | Humidity | Pressure | Rain* | Wind** | Luminosity | Snow |
|---|---|---|---|---|---|---|---|
| 1778071008 | 7.22° C | 97% | 1010.7 hPa | 0.25 mm | - | - | - |
| 1778070409 | 7.22° C | 97% | 1010.9 hPa | 0.25 mm | - | - | - |
| 1778070005 | 7.22° C | 97% | 1010.9 hPa | 0.25 mm | - | - | - |
| 1778069946 | 7.22° C | 97% | 1010.9 hPa | 0.25 mm | - | - | - |
| 1778069808 | 7.22° C | 97% | 1010.9 hPa | 0.25 mm | - | - | - |
| 1778069212 | 7.22° C | 97% | 1010.9 hPa | 0.25 mm | - | - | - |
| 1778068808 | 7.22° C | 97% | 1011.1 hPa | 0 mm | - | - | - |
| 1778068608 | 7.22° C | 97% | 1011.1 hPa | 0 mm | - | - | - |
| 1778068130 | 7.22° C | 97% | 1011.1 hPa | 0 mm | - | - | - |
| 1778068012 | 7.22° C | 97% | 1011.1 hPa | 0 mm | - | - | - |
| 1778067413 | 7.22° C | 97% | 1010.8 hPa | 0.25 mm | - | - | - |
| 1778066816 | 7.22° C | 97% | 1010.6 hPa | 1.02 mm | - | - | - |
| 1778066283 | 7.22° C | 97% | 1010.6 hPa | 1.02 mm | - | - | - |
| 1778066208 | 7.22° C | 97% | 1010.6 hPa | 1.02 mm | - | - | - |
| 1778065808 | 7.22° C | 97% | 1009.9 hPa | 1.52 mm | - | - | - |
| 1778065693 | 7.22° C | 97% | 1009.9 hPa | 1.52 mm | - | - | - |
| 1778065611 | 7.22° C | 97% | 1009.9 hPa | 1.52 mm | - | - | - |
| 1778065207 | 7.22° C | 97% | 1009.4 hPa | 2.79 mm | - | - | - |
| 1778065099 | 7.22° C | 97% | 1009.4 hPa | 2.79 mm | - | - | - |
| 1778065008 | 7.22° C | 97% | 1009.4 hPa | 2.79 mm | - | - | - |
| 1778064607 | 7.22° C | 97% | 1009.4 hPa | 2.79 mm | - | - | - |
| 1778064410 | 7.22° C | 97% | 1009.4 hPa | 2.79 mm | - | - | - |
| 1778064009 | 7.22° C | 97% | 1010 hPa | 2.54 mm | - | - | - |
| 1778063812 | 7.22° C | 97% | 1010 hPa | 2.54 mm | - | - | - |
| 1778063216 | 7.22° C | 97% | 1010.2 hPa | 2.03 mm | - | - | - |
* Rain latest hour (hover to see other rain measurements)
** Current wind speed in m/s (hover to see current wind gust speed)